sensor_id;sensor_type;location;lat;lon;timestamp;temperature;humidity
10788;DHT22;5446;50.826;4.380;2023-07-28T00:01:36;17.70;99.90
10788;DHT22;5446;50.826;4.380;2023-07-28T00:04:02;17.70;99.90
10788;DHT22;5446;50.826;4.380;2023-07-28T00:06:32;17.70;99.90
10788;DHT22;5446;50.826;4.380;2023-07-28T00:08:58;17.70;99.90
10788;DHT22;5446;50.826;4.380;2023-07-28T00:11:24;17.70;99.90
10788;DHT22;5446;50.826;4.380;2023-07-28T00:13:50;17.70;99.90
10788;DHT22;5446;50.826;4.380;2023-07-28T00:16:15;17.70;99.90
10788;DHT22;5446;50.826;4.380;2023-07-28T00:18:41;17.70;99.90
10788;DHT22;5446;50.826;4.380;2023-07-28T00:21:07;17.70;99.90
10788;DHT22;5446;50.826;4.380;2023-07-28T00:23:33;17.70;99.90
10788;DHT22;5446;50.826;4.380;2023-07-28T00:25:58;17.70;99.90
10788;DHT22;5446;50.826;4.380;2023-07-28T00:28:24;17.70;99.90
10788;DHT22;5446;50.826;4.380;2023-07-28T00:30:50;17.80;99.90
10788;DHT22;5446;50.826;4.380;2023-07-28T00:33:16;17.70;99.90
10788;DHT22;5446;50.826;4.380;2023-07-28T00:35:42;17.70;99.90
10788;DHT22;5446;50.826;4.380;2023-07-28T00:38:08;17.70;99.90
10788;DHT22;5446;50.826;4.380;2023-07-28T00:40:35;17.70;99.90
10788;DHT22;5446;50.826;4.380;2023-07-28T00:43:01;17.70;99.90
10788;DHT22;5446;50.826;4.380;2023-07-28T00:45:28;17.70;99.90
10788;DHT22;5446;50.826;4.380;2023-07-28T00:47:55;17.70;99.90
10788;DHT22;5446;50.826;4.380;2023-07-28T00:50:24;17.80;99.90
10788;DHT22;5446;50.826;4.380;2023-07-28T00:52:50;17.80;99.90
10788;DHT22;5446;50.826;4.380;2023-07-28T00:55:16;17.80;99.90
10788;DHT22;5446;50.826;4.380;2023-07-28T00:57:42;17.80;99.90
10788;DHT22;5446;50.826;4.380;2023-07-28T01:00:09;17.80;99.90
10788;DHT22;5446;50.826;4.380;2023-07-28T01:02:35;17.80;99.90
10788;DHT22;5446;50.826;4.380;2023-07-28T01:05:01;17.80;99.90
10788;DHT22;5446;50.826;4.380;2023-07-28T01:07:47;17.80;99.90
10788;DHT22;5446;50.826;4.380;2023-07-28T01:10:18;17.80;99.90
10788;DHT22;5446;50.826;4.380;2023-07-28T01:12:47;17.80;99.90
10788;DHT22;5446;50.826;4.380;2023-07-28T01:15:12;17.80;99.90
10788;DHT22;5446;50.826;4.380;2023-07-28T01:17:41;17.80;99.90
10788;DHT22;5446;50.826;4.380;2023-07-28T01:20:07;17.80;99.90
10788;DHT22;5446;50.826;4.380;2023-07-28T01:28:13;17.80;99.90
10788;DHT22;5446;50.826;4.380;2023-07-28T01:30:40;17.80;99.90
10788;DHT22;5446;50.826;4.380;2023-07-28T01:33:07;17.80;99.90
10788;DHT22;5446;50.826;4.380;2023-07-28T01:35:34;17.80;99.90
10788;DHT22;5446;50.826;4.380;2023-07-28T01:38:00;17.80;99.90
10788;DHT22;5446;50.826;4.380;2023-07-28T01:40:25;17.70;99.90
10788;DHT22;5446;50.826;4.380;2023-07-28T01:42:51;17.70;99.90
10788;DHT22;5446;50.826;4.380;2023-07-28T01:45:17;17.70;99.90
10788;DHT22;5446;50.826;4.380;2023-07-28T01:47:42;17.70;99.90
10788;DHT22;5446;50.826;4.380;2023-07-28T01:50:08;17.70;99.90
10788;DHT22;5446;50.826;4.380;2023-07-28T01:52:34;17.70;99.90
10788;DHT22;5446;50.826;4.380;2023-07-28T01:55:00;17.70;99.90
10788;DHT22;5446;50.826;4.380;2023-07-28T01:57:26;17.70;99.90
10788;DHT22;5446;50.826;4.380;2023-07-28T01:59:54;17.70;99.90
10788;DHT22;5446;50.826;4.380;2023-07-28T02:02:19;17.70;99.90
10788;DHT22;5446;50.826;4.380;2023-07-28T02:04:45;17.70;99.90
10788;DHT22;5446;50.826;4.380;2023-07-28T02:07:11;17.70;99.90
10788;DHT22;5446;50.826;4.380;2023-07-28T02:09:37;17.70;99.90
10788;DHT22;5446;50.826;4.380;2023-07-28T02:12:03;17.70;99.90
10788;DHT22;5446;50.826;4.380;2023-07-28T02:14:28;17.70;99.90
10788;DHT22;5446;50.826;4.380;2023-07-28T02:16:54;17.70;99.90
10788;DHT22;5446;50.826;4.380;2023-07-28T02:19:20;17.70;99.90
10788;DHT22;5446;50.826;4.380;2023-07-28T02:21:45;17.70;99.90
10788;DHT22;5446;50.826;4.380;2023-07-28T02:24:11;17.70;99.90
10788;DHT22;5446;50.826;4.380;2023-07-28T02:26:37;17.70;99.90
10788;DHT22;5446;50.826;4.380;2023-07-28T02:29:03;17.70;99.90
10788;DHT22;5446;50.826;4.380;2023-07-28T02:31:28;17.70;99.90
10788;DHT22;5446;50.826;4.380;2023-07-28T02:33:55;17.70;99.90
10788;DHT22;5446;50.826;4.380;2023-07-28T02:36:20;17.70;99.90
10788;DHT22;5446;50.826;4.380;2023-07-28T02:38:46;17.70;99.90
10788;DHT22;5446;50.826;4.380;2023-07-28T02:41:12;17.70;99.90
10788;DHT22;5446;50.826;4.380;2023-07-28T02:43:37;17.70;99.90
10788;DHT22;5446;50.826;4.380;2023-07-28T02:46:03;17.70;99.90
10788;DHT22;5446;50.826;4.380;2023-07-28T02:48:29;17.70;99.90
10788;DHT22;5446;50.826;4.380;2023-07-28T02:50:54;17.70;99.90
10788;DHT22;5446;50.826;4.380;2023-07-28T02:53:20;17.70;99.90
10788;DHT22;5446;50.826;4.380;2023-07-28T02:55:47;17.70;99.90
10788;DHT22;5446;50.826;4.380;2023-07-28T02:58:13;17.70;99.90
10788;DHT22;5446;50.826;4.380;2023-07-28T03:00:40;17.70;99.90
10788;DHT22;5446;50.826;4.380;2023-07-28T03:03:07;17.70;99.90
10788;DHT22;5446;50.826;4.380;2023-07-28T03:05:33;17.70;99.90
10788;DHT22;5446;50.826;4.380;2023-07-28T03:07:58;17.70;99.90
10788;DHT22;5446;50.826;4.380;2023-07-28T03:10:25;17.70;99.90
10788;DHT22;5446;50.826;4.380;2023-07-28T03:12:50;17.70;99.90
10788;DHT22;5446;50.826;4.380;2023-07-28T03:15:16;17.70;99.90
10788;DHT22;5446;50.826;4.380;2023-07-28T03:17:42;17.70;99.90
10788;DHT22;5446;50.826;4.380;2023-07-28T03:20:08;17.70;99.90
10788;DHT22;5446;50.826;4.380;2023-07-28T03:22:34;17.70;99.90
10788;DHT22;5446;50.826;4.380;2023-07-28T03:24:59;17.70;99.90
10788;DHT22;5446;50.826;4.380;2023-07-28T03:27:25;17.70;99.90
10788;DHT22;5446;50.826;4.380;2023-07-28T03:29:51;17.70;99.90
10788;DHT22;5446;50.826;4.380;2023-07-28T03:32:17;17.70;99.90
10788;DHT22;5446;50.826;4.380;2023-07-28T03:34:42;17.70;99.90
10788;DHT22;5446;50.826;4.380;2023-07-28T03:37:08;17.70;99.90
10788;DHT22;5446;50.826;4.380;2023-07-28T03:39:34;17.70;99.90
10788;DHT22;5446;50.826;4.380;2023-07-28T03:42:00;17.70;99.90
10788;DHT22;5446;50.826;4.380;2023-07-28T03:44:26;17.60;99.90
10788;DHT22;5446;50.826;4.380;2023-07-28T03:46:51;17.60;99.90
10788;DHT22;5446;50.826;4.380;2023-07-28T03:49:17;17.70;99.90
10788;DHT22;5446;50.826;4.380;2023-07-28T03:51:43;17.70;99.90
10788;DHT22;5446;50.826;4.380;2023-07-28T03:54:09;17.70;99.90
10788;DHT22;5446;50.826;4.380;2023-07-28T03:56:34;17.70;99.90
10788;DHT22;5446;50.826;4.380;2023-07-28T03:59:00;17.70;99.90
10788;DHT22;5446;50.826;4.380;2023-07-28T04:01:26;17.70;99.90
10788;DHT22;5446;50.826;4.380;2023-07-28T04:03:51;17.70;99.90
10788;DHT22;5446;50.826;4.380;2023-07-28T04:06:17;17.70;99.90
10788;DHT22;5446;50.826;4.380;2023-07-28T04:08:43;17.70;99.90
10788;DHT22;5446;50.826;4.380;2023-07-28T04:11:08;17.70;99.90
10788;DHT22;5446;50.826;4.380;2023-07-28T04:13:35;17.70;99.90
10788;DHT22;5446;50.826;4.380;2023-07-28T04:16:01;17.70;99.90
10788;DHT22;5446;50.826;4.380;2023-07-28T04:18:27;17.70;99.90
10788;DHT22;5446;50.826;4.380;2023-07-28T04:20:53;17.70;99.90
10788;DHT22;5446;50.826;4.380;2023-07-28T04:23:18;17.70;99.90
10788;DHT22;5446;50.826;4.380;2023-07-28T04:25:44;17.70;99.90
10788;DHT22;5446;50.826;4.380;2023-07-28T04:28:10;17.70;99.90
10788;DHT22;5446;50.826;4.380;2023-07-28T04:30:35;17.80;99.90
10788;DHT22;5446;50.826;4.380;2023-07-28T04:33:01;17.80;99.90
10788;DHT22;5446;50.826;4.380;2023-07-28T04:35:30;17.80;99.90
10788;DHT22;5446;50.826;4.380;2023-07-28T04:37:55;17.80;99.90
10788;DHT22;5446;50.826;4.380;2023-07-28T04:40:21;17.80;99.90
10788;DHT22;5446;50.826;4.380;2023-07-28T04:42:46;17.80;99.90
10788;DHT22;5446;50.826;4.380;2023-07-28T04:45:12;17.90;99.90
10788;DHT22;5446;50.826;4.380;2023-07-28T04:47:38;17.90;99.90
10788;DHT22;5446;50.826;4.380;2023-07-28T04:50:04;17.90;99.90
10788;DHT22;5446;50.826;4.380;2023-07-28T04:52:30;17.90;99.90
10788;DHT22;5446;50.826;4.380;2023-07-28T04:54:55;17.90;99.90
10788;DHT22;5446;50.826;4.380;2023-07-28T04:57:21;17.90;99.90
10788;DHT22;5446;50.826;4.380;2023-07-28T04:59:47;18.00;99.90
10788;DHT22;5446;50.826;4.380;2023-07-28T05:02:12;17.90;99.90
10788;DHT22;5446;50.826;4.380;2023-07-28T05:04:38;18.00;99.90
10788;DHT22;5446;50.826;4.380;2023-07-28T05:07:04;18.00;99.90
10788;DHT22;5446;50.826;4.380;2023-07-28T05:09:30;18.00;99.90
10788;DHT22;5446;50.826;4.380;2023-07-28T05:11:55;18.00;99.90
10788;DHT22;5446;50.826;4.380;2023-07-28T05:14:21;18.00;99.90
10788;DHT22;5446;50.826;4.380;2023-07-28T05:16:47;17.90;99.90
10788;DHT22;5446;50.826;4.380;2023-07-28T05:19:13;17.90;99.90
10788;DHT22;5446;50.826;4.380;2023-07-28T05:21:39;18.00;99.90
10788;DHT22;5446;50.826;4.380;2023-07-28T05:24:05;18.00;99.90
10788;DHT22;5446;50.826;4.380;2023-07-28T05:26:30;18.00;99.90
10788;DHT22;5446;50.826;4.380;2023-07-28T05:28:56;18.00;99.90
10788;DHT22;5446;50.826;4.380;2023-07-28T05:31:23;18.00;99.90
10788;DHT22;5446;50.826;4.380;2023-07-28T05:33:49;18.00;99.90
10788;DHT22;5446;50.826;4.380;2023-07-28T05:36:15;18.00;99.90
10788;DHT22;5446;50.826;4.380;2023-07-28T05:38:41;18.10;99.90
10788;DHT22;5446;50.826;4.380;2023-07-28T05:41:06;18.10;99.90
10788;DHT22;5446;50.826;4.380;2023-07-28T05:43:33;18.10;99.90
10788;DHT22;5446;50.826;4.380;2023-07-28T05:45:59;18.20;99.90
10788;DHT22;5446;50.826;4.380;2023-07-28T05:48:25;18.20;99.90
10788;DHT22;5446;50.826;4.380;2023-07-28T05:50:51;18.20;99.90
10788;DHT22;5446;50.826;4.380;2023-07-28T05:53:21;18.10;99.90
10788;DHT22;5446;50.826;4.380;2023-07-28T05:55:47;18.20;99.90
10788;DHT22;5446;50.826;4.380;2023-07-28T05:58:14;18.20;99.90
10788;DHT22;5446;50.826;4.380;2023-07-28T06:00:40;18.20;99.90
10788;DHT22;5446;50.826;4.380;2023-07-28T06:03:09;18.20;99.90
10788;DHT22;5446;50.826;4.380;2023-07-28T06:05:35;18.10;99.90
10788;DHT22;5446;50.826;4.380;2023-07-28T06:08:01;18.20;99.90
10788;DHT22;5446;50.826;4.380;2023-07-28T06:10:26;18.20;99.90
10788;DHT22;5446;50.826;4.380;2023-07-28T06:12:52;18.20;99.90
10788;DHT22;5446;50.826;4.380;2023-07-28T06:15:18;18.20;99.90
10788;DHT22;5446;50.826;4.380;2023-07-28T06:17:43;18.30;99.90
10788;DHT22;5446;50.826;4.380;2023-07-28T06:20:09;18.30;99.90
10788;DHT22;5446;50.826;4.380;2023-07-28T06:22:35;18.30;99.90
10788;DHT22;5446;50.826;4.380;2023-07-28T06:25:01;18.40;99.90
10788;DHT22;5446;50.826;4.380;2023-07-28T06:27:28;18.30;99.90
10788;DHT22;5446;50.826;4.380;2023-07-28T06:29:53;18.40;99.90
10788;DHT22;5446;50.826;4.380;2023-07-28T06:32:19;18.50;99.90
10788;DHT22;5446;50.826;4.380;2023-07-28T06:34:48;18.50;99.90
10788;DHT22;5446;50.826;4.380;2023-07-28T06:37:14;18.60;99.90
10788;DHT22;5446;50.826;4.380;2023-07-28T06:39:40;18.60;99.90
10788;DHT22;5446;50.826;4.380;2023-07-28T06:42:07;18.70;99.90
10788;DHT22;5446;50.826;4.380;2023-07-28T06:44:32;18.70;99.90
10788;DHT22;5446;50.826;4.380;2023-07-28T06:46:58;18.80;99.90
10788;DHT22;5446;50.826;4.380;2023-07-28T06:49:24;18.90;99.90
10788;DHT22;5446;50.826;4.380;2023-07-28T06:51:49;18.90;99.90
10788;DHT22;5446;50.826;4.380;2023-07-28T06:54:15;18.90;99.90
10788;DHT22;5446;50.826;4.380;2023-07-28T06:56:41;18.90;99.90
10788;DHT22;5446;50.826;4.380;2023-07-28T06:59:07;18.70;99.90
10788;DHT22;5446;50.826;4.380;2023-07-28T07:01:33;18.70;99.90
10788;DHT22;5446;50.826;4.380;2023-07-28T07:03:59;18.60;99.90
10788;DHT22;5446;50.826;4.380;2023-07-28T07:06:25;18.60;99.90
10788;DHT22;5446;50.826;4.380;2023-07-28T07:08:51;18.60;99.90
10788;DHT22;5446;50.826;4.380;2023-07-28T07:11:16;18.60;99.90
10788;DHT22;5446;50.826;4.380;2023-07-28T07:13:42;18.60;99.90
10788;DHT22;5446;50.826;4.380;2023-07-28T07:16:17;18.60;99.90
10788;DHT22;5446;50.826;4.380;2023-07-28T07:18:43;18.70;99.90
10788;DHT22;5446;50.826;4.380;2023-07-28T07:21:09;18.80;99.90
10788;DHT22;5446;50.826;4.380;2023-07-28T07:23:36;19.00;99.90
10788;DHT22;5446;50.826;4.380;2023-07-28T07:26:02;18.90;99.90
10788;DHT22;5446;50.826;4.380;2023-07-28T07:28:28;19.00;99.90
10788;DHT22;5446;50.826;4.380;2023-07-28T07:30:54;19.10;99.90
10788;DHT22;5446;50.826;4.380;2023-07-28T07:33:20;19.10;99.90
10788;DHT22;5446;50.826;4.380;2023-07-28T07:35:46;19.20;99.90
10788;DHT22;5446;50.826;4.380;2023-07-28T07:38:12;19.20;99.90
10788;DHT22;5446;50.826;4.380;2023-07-28T07:40:38;19.20;99.90
10788;DHT22;5446;50.826;4.380;2023-07-28T07:43:04;19.20;99.90
10788;DHT22;5446;50.826;4.380;2023-07-28T07:45:31;19.20;99.90
10788;DHT22;5446;50.826;4.380;2023-07-28T07:47:57;19.40;99.90
10788;DHT22;5446;50.826;4.380;2023-07-28T07:50:23;19.40;99.90
10788;DHT22;5446;50.826;4.380;2023-07-28T07:52:49;19.60;99.90
10788;DHT22;5446;50.826;4.380;2023-07-28T07:55:15;19.60;99.90
10788;DHT22;5446;50.826;4.380;2023-07-28T07:57:41;19.50;99.90
10788;DHT22;5446;50.826;4.380;2023-07-28T08:00:08;19.60;99.90
10788;DHT22;5446;50.826;4.380;2023-07-28T08:02:34;19.80;99.90
10788;DHT22;5446;50.826;4.380;2023-07-28T08:05:00;19.80;99.90
10788;DHT22;5446;50.826;4.380;2023-07-28T08:07:26;19.80;99.90
10788;DHT22;5446;50.826;4.380;2023-07-28T08:09:52;19.90;99.90
10788;DHT22;5446;50.826;4.380;2023-07-28T08:12:18;19.90;99.90
10788;DHT22;5446;50.826;4.380;2023-07-28T08:14:44;19.90;99.90
10788;DHT22;5446;50.826;4.380;2023-07-28T08:17:11;19.90;99.90
10788;DHT22;5446;50.826;4.380;2023-07-28T08:19:37;19.80;99.90
10788;DHT22;5446;50.826;4.380;2023-07-28T08:22:03;20.00;99.90
10788;DHT22;5446;50.826;4.380;2023-07-28T08:24:30;20.00;99.90
10788;DHT22;5446;50.826;4.380;2023-07-28T08:26:56;20.00;99.90
10788;DHT22;5446;50.826;4.380;2023-07-28T08:29:22;20.10;99.90
10788;DHT22;5446;50.826;4.380;2023-07-28T08:31:47;20.10;99.90
10788;DHT22;5446;50.826;4.380;2023-07-28T08:34:13;20.00;99.90
10788;DHT22;5446;50.826;4.380;2023-07-28T08:36:39;19.90;99.90
10788;DHT22;5446;50.826;4.380;2023-07-28T08:39:05;19.90;99.90
10788;DHT22;5446;50.826;4.380;2023-07-28T08:41:31;20.00;99.90
10788;DHT22;5446;50.826;4.380;2023-07-28T08:43:56;20.00;99.90
10788;DHT22;5446;50.826;4.380;2023-07-28T08:46:22;20.20;99.90
10788;DHT22;5446;50.826;4.380;2023-07-28T08:48:48;20.30;99.90
10788;DHT22;5446;50.826;4.380;2023-07-28T08:51:14;20.20;99.90
10788;DHT22;5446;50.826;4.380;2023-07-28T08:53:40;20.10;99.90
10788;DHT22;5446;50.826;4.380;2023-07-28T08:56:06;20.10;99.90
10788;DHT22;5446;50.826;4.380;2023-07-28T08:58:32;20.00;99.90
10788;DHT22;5446;50.826;4.380;2023-07-28T09:00:59;20.00;99.90
10788;DHT22;5446;50.826;4.380;2023-07-28T09:03:27;20.10;99.90
10788;DHT22;5446;50.826;4.380;2023-07-28T09:05:59;20.20;99.90
10788;DHT22;5446;50.826;4.380;2023-07-28T09:08:25;20.20;99.90
10788;DHT22;5446;50.826;4.380;2023-07-28T09:10:51;20.20;99.90
10788;DHT22;5446;50.826;4.380;2023-07-28T09:13:18;20.20;99.90
10788;DHT22;5446;50.826;4.380;2023-07-28T09:15:44;20.30;99.90
10788;DHT22;5446;50.826;4.380;2023-07-28T09:18:11;20.40;99.90
10788;DHT22;5446;50.826;4.380;2023-07-28T09:20:39;20.40;99.90
10788;DHT22;5446;50.826;4.380;2023-07-28T09:23:07;20.40;99.90
10788;DHT22;5446;50.826;4.380;2023-07-28T09:25:37;20.20;99.90
10788;DHT22;5446;50.826;4.380;2023-07-28T09:28:03;20.30;99.90
10788;DHT22;5446;50.826;4.380;2023-07-28T09:30:47;20.40;99.90
10788;DHT22;5446;50.826;4.380;2023-07-28T09:33:13;20.20;99.90
10788;DHT22;5446;50.826;4.380;2023-07-28T09:35:49;20.30;99.90
10788;DHT22;5446;50.826;4.380;2023-07-28T09:38:15;20.40;99.90
10788;DHT22;5446;50.826;4.380;2023-07-28T09:40:42;20.50;99.90
10788;DHT22;5446;50.826;4.380;2023-07-28T09:43:08;20.50;99.90
10788;DHT22;5446;50.826;4.380;2023-07-28T09:45:35;20.80;99.90
10788;DHT22;5446;50.826;4.380;2023-07-28T09:48:02;21.00;99.90
10788;DHT22;5446;50.826;4.380;2023-07-28T09:50:33;21.20;99.90
10788;DHT22;5446;50.826;4.380;2023-07-28T09:53:02;21.20;99.90
10788;DHT22;5446;50.826;4.380;2023-07-28T09:55:28;21.00;99.90
10788;DHT22;5446;50.826;4.380;2023-07-28T09:57:55;20.90;99.90
10788;DHT22;5446;50.826;4.380;2023-07-28T10:00:23;20.90;99.90
10788;DHT22;5446;50.826;4.380;2023-07-28T10:02:50;21.00;99.90
10788;DHT22;5446;50.826;4.380;2023-07-28T10:05:16;21.00;99.90
10788;DHT22;5446;50.826;4.380;2023-07-28T10:07:43;21.10;99.90
10788;DHT22;5446;50.826;4.380;2023-07-28T10:10:14;21.10;99.90
10788;DHT22;5446;50.826;4.380;2023-07-28T10:12:46;21.10;99.90
10788;DHT22;5446;50.826;4.380;2023-07-28T10:15:15;21.30;99.90
10788;DHT22;5446;50.826;4.380;2023-07-28T10:17:50;21.50;99.90
10788;DHT22;5446;50.826;4.380;2023-07-28T10:20:35;21.60;99.90
10788;DHT22;5446;50.826;4.380;2023-07-28T10:25:37;21.50;99.90
10788;DHT22;5446;50.826;4.380;2023-07-28T10:28:05;21.50;99.90
10788;DHT22;5446;50.826;4.380;2023-07-28T10:30:54;21.60;99.90
10788;DHT22;5446;50.826;4.380;2023-07-28T10:33:37;21.60;99.90
10788;DHT22;5446;50.826;4.380;2023-07-28T10:39:15;21.70;99.90
10788;DHT22;5446;50.826;4.380;2023-07-28T10:44:29;21.90;99.90
10788;DHT22;5446;50.826;4.380;2023-07-28T10:46:55;22.10;99.90
10788;DHT22;5446;50.826;4.380;2023-07-28T10:49:20;22.10;99.90
10788;DHT22;5446;50.826;4.380;2023-07-28T10:51:46;22.30;99.90
10788;DHT22;5446;50.826;4.380;2023-07-28T10:54:12;22.10;99.90
10788;DHT22;5446;50.826;4.380;2023-07-28T10:56:44;22.00;99.90
10788;DHT22;5446;50.826;4.380;2023-07-28T10:59:10;21.90;99.90
10788;DHT22;5446;50.826;4.380;2023-07-28T11:01:38;21.80;99.90
10788;DHT22;5446;50.826;4.380;2023-07-28T11:06:38;22.00;99.90
10788;DHT22;5446;50.826;4.380;2023-07-28T11:09:09;22.10;99.90
10788;DHT22;5446;50.826;4.380;2023-07-28T11:11:39;22.30;99.90
10788;DHT22;5446;50.826;4.380;2023-07-28T11:14:06;22.50;99.90
10788;DHT22;5446;50.826;4.380;2023-07-28T11:16:41;22.50;99.90
10788;DHT22;5446;50.826;4.380;2023-07-28T11:19:09;22.50;99.90
10788;DHT22;5446;50.826;4.380;2023-07-28T11:21:37;22.60;99.90
10788;DHT22;5446;50.826;4.380;2023-07-28T11:24:04;22.60;99.90
10788;DHT22;5446;50.826;4.380;2023-07-28T11:26:30;22.60;99.90
10788;DHT22;5446;50.826;4.380;2023-07-28T11:28:59;22.90;99.90
10788;DHT22;5446;50.826;4.380;2023-07-28T11:31:25;22.80;99.90
10788;DHT22;5446;50.826;4.380;2023-07-28T11:33:52;22.80;99.90
10788;DHT22;5446;50.826;4.380;2023-07-28T11:36:28;23.00;99.90
10788;DHT22;5446;50.826;4.380;2023-07-28T11:38:56;23.00;99.90
10788;DHT22;5446;50.826;4.380;2023-07-28T11:41:22;22.90;99.90
10788;DHT22;5446;50.826;4.380;2023-07-28T11:43:49;22.80;99.90
10788;DHT22;5446;50.826;4.380;2023-07-28T11:46:45;22.90;99.90
10788;DHT22;5446;50.826;4.380;2023-07-28T11:49:15;23.00;99.90
10788;DHT22;5446;50.826;4.380;2023-07-28T11:51:44;23.20;99.90
10788;DHT22;5446;50.826;4.380;2023-07-28T11:54:14;23.00;99.90
10788;DHT22;5446;50.826;4.380;2023-07-28T11:56:45;22.70;99.90
10788;DHT22;5446;50.826;4.380;2023-07-28T11:59:13;22.70;99.90
10788;DHT22;5446;50.826;4.380;2023-07-28T12:01:59;22.80;99.90
10788;DHT22;5446;50.826;4.380;2023-07-28T12:04:27;23.00;99.90
10788;DHT22;5446;50.826;4.380;2023-07-28T12:07:14;23.00;99.90
10788;DHT22;5446;50.826;4.380;2023-07-28T12:12:22;23.20;99.90
10788;DHT22;5446;50.826;4.380;2023-07-28T12:14:49;23.10;99.90
10788;DHT22;5446;50.826;4.380;2023-07-28T12:17:18;23.00;99.90
10788;DHT22;5446;50.826;4.380;2023-07-28T12:20:05;23.00;99.90
10788;DHT22;5446;50.826;4.380;2023-07-28T12:22:37;23.00;99.90
10788;DHT22;5446;50.826;4.380;2023-07-28T12:25:03;22.80;99.90
10788;DHT22;5446;50.826;4.380;2023-07-28T12:27:30;22.80;99.90
10788;DHT22;5446;50.826;4.380;2023-07-28T12:29:56;22.90;99.90
10788;DHT22;5446;50.826;4.380;2023-07-28T12:32:21;23.20;99.90
10788;DHT22;5446;50.826;4.380;2023-07-28T12:34:49;23.60;99.90
10788;DHT22;5446;50.826;4.380;2023-07-28T12:37:15;23.70;99.90
10788;DHT22;5446;50.826;4.380;2023-07-28T12:39:41;23.50;99.90
10788;DHT22;5446;50.826;4.380;2023-07-28T12:42:08;23.50;99.90
10788;DHT22;5446;50.826;4.380;2023-07-28T12:44:35;23.50;99.90
10788;DHT22;5446;50.826;4.380;2023-07-28T12:47:01;23.50;99.90
10788;DHT22;5446;50.826;4.380;2023-07-28T12:49:28;23.50;99.90
10788;DHT22;5446;50.826;4.380;2023-07-28T12:51:55;23.50;99.90
10788;DHT22;5446;50.826;4.380;2023-07-28T12:54:22;23.60;99.90
10788;DHT22;5446;50.826;4.380;2023-07-28T12:56:48;23.60;99.90
10788;DHT22;5446;50.826;4.380;2023-07-28T12:59:14;23.50;99.90
10788;DHT22;5446;50.826;4.380;2023-07-28T13:01:40;23.40;99.90
10788;DHT22;5446;50.826;4.380;2023-07-28T13:04:06;23.30;99.90
10788;DHT22;5446;50.826;4.380;2023-07-28T13:06:32;23.30;99.90
10788;DHT22;5446;50.826;4.380;2023-07-28T13:08:58;23.40;99.90
10788;DHT22;5446;50.826;4.380;2023-07-28T13:11:24;23.70;99.90
10788;DHT22;5446;50.826;4.380;2023-07-28T13:13:49;24.00;99.90
10788;DHT22;5446;50.826;4.380;2023-07-28T13:16:15;23.90;99.90
10788;DHT22;5446;50.826;4.380;2023-07-28T13:18:43;23.80;99.90
10788;DHT22;5446;50.826;4.380;2023-07-28T13:21:08;23.70;99.90
10788;DHT22;5446;50.826;4.380;2023-07-28T13:23:36;23.70;99.90
10788;DHT22;5446;50.826;4.380;2023-07-28T13:26:02;23.50;99.90
10788;DHT22;5446;50.826;4.380;2023-07-28T13:28:35;23.40;99.90
10788;DHT22;5446;50.826;4.380;2023-07-28T13:31:04;23.30;99.90
10788;DHT22;5446;50.826;4.380;2023-07-28T13:33:30;23.20;99.90
10788;DHT22;5446;50.826;4.380;2023-07-28T13:35:56;23.20;99.90
10788;DHT22;5446;50.826;4.380;2023-07-28T13:38:22;23.60;99.90
10788;DHT22;5446;50.826;4.380;2023-07-28T13:40:48;24.00;99.90
10788;DHT22;5446;50.826;4.380;2023-07-28T13:43:13;24.20;99.90
10788;DHT22;5446;50.826;4.380;2023-07-28T13:45:39;24.40;99.90
10788;DHT22;5446;50.826;4.380;2023-07-28T13:48:05;24.30;99.90
10788;DHT22;5446;50.826;4.380;2023-07-28T13:50:30;24.50;99.90
10788;DHT22;5446;50.826;4.380;2023-07-28T13:52:56;24.70;99.90
10788;DHT22;5446;50.826;4.380;2023-07-28T13:55:22;24.60;99.90
10788;DHT22;5446;50.826;4.380;2023-07-28T13:57:48;24.80;99.90
10788;DHT22;5446;50.826;4.380;2023-07-28T14:00:14;25.00;99.90
10788;DHT22;5446;50.826;4.380;2023-07-28T14:02:40;25.00;99.90
10788;DHT22;5446;50.826;4.380;2023-07-28T14:05:06;24.90;99.90
10788;DHT22;5446;50.826;4.380;2023-07-28T14:07:33;25.00;99.90
10788;DHT22;5446;50.826;4.380;2023-07-28T14:10:00;24.60;99.90
10788;DHT22;5446;50.826;4.380;2023-07-28T14:12:26;24.40;99.90
10788;DHT22;5446;50.826;4.380;2023-07-28T14:14:52;24.20;99.90
10788;DHT22;5446;50.826;4.380;2023-07-28T14:17:17;24.00;99.90
10788;DHT22;5446;50.826;4.380;2023-07-28T14:19:43;24.00;99.90
10788;DHT22;5446;50.826;4.380;2023-07-28T14:22:09;23.90;99.90
10788;DHT22;5446;50.826;4.380;2023-07-28T14:24:35;24.00;99.90
10788;DHT22;5446;50.826;4.380;2023-07-28T14:27:01;24.10;99.90
10788;DHT22;5446;50.826;4.380;2023-07-28T14:29:27;24.10;99.90
10788;DHT22;5446;50.826;4.380;2023-07-28T14:31:53;24.40;99.90
10788;DHT22;5446;50.826;4.380;2023-07-28T14:34:19;24.50;99.90
10788;DHT22;5446;50.826;4.380;2023-07-28T14:36:45;24.80;99.90
10788;DHT22;5446;50.826;4.380;2023-07-28T14:39:10;25.00;99.90
10788;DHT22;5446;50.826;4.380;2023-07-28T14:41:36;24.80;99.90
10788;DHT22;5446;50.826;4.380;2023-07-28T14:44:02;24.70;99.90
10788;DHT22;5446;50.826;4.380;2023-07-28T14:46:28;24.90;99.90
10788;DHT22;5446;50.826;4.380;2023-07-28T14:48:54;25.00;99.90
10788;DHT22;5446;50.826;4.380;2023-07-28T14:51:21;25.10;99.90
10788;DHT22;5446;50.826;4.380;2023-07-28T14:53:47;25.20;99.90
10788;DHT22;5446;50.826;4.380;2023-07-28T14:56:14;25.00;99.90
10788;DHT22;5446;50.826;4.380;2023-07-28T14:58:40;24.90;99.90
10788;DHT22;5446;50.826;4.380;2023-07-28T15:01:12;24.80;99.90
10788;DHT22;5446;50.826;4.380;2023-07-28T15:03:37;25.10;99.90
10788;DHT22;5446;50.826;4.380;2023-07-28T15:06:03;25.00;99.90
10788;DHT22;5446;50.826;4.380;2023-07-28T15:08:30;25.00;99.90
10788;DHT22;5446;50.826;4.380;2023-07-28T15:10:57;25.00;99.90
10788;DHT22;5446;50.826;4.380;2023-07-28T15:13:23;25.00;99.90
10788;DHT22;5446;50.826;4.380;2023-07-28T15:15:49;25.00;99.90
10788;DHT22;5446;50.826;4.380;2023-07-28T15:18:15;25.20;99.90
10788;DHT22;5446;50.826;4.380;2023-07-28T15:20:41;25.40;99.90
10788;DHT22;5446;50.826;4.380;2023-07-28T15:23:08;25.60;99.90
10788;DHT22;5446;50.826;4.380;2023-07-28T15:25:34;25.80;99.90
10788;DHT22;5446;50.826;4.380;2023-07-28T15:27:59;25.80;99.90
10788;DHT22;5446;50.826;4.380;2023-07-28T15:30:25;25.80;99.90
10788;DHT22;5446;50.826;4.380;2023-07-28T15:32:51;26.10;99.90
10788;DHT22;5446;50.826;4.380;2023-07-28T15:35:17;26.50;99.90
10788;DHT22;5446;50.826;4.380;2023-07-28T15:37:44;26.50;99.90
10788;DHT22;5446;50.826;4.380;2023-07-28T15:40:10;26.30;99.90
10788;DHT22;5446;50.826;4.380;2023-07-28T15:42:36;26.40;99.90
10788;DHT22;5446;50.826;4.380;2023-07-28T15:45:02;26.50;99.90
10788;DHT22;5446;50.826;4.380;2023-07-28T15:47:28;26.70;99.90
10788;DHT22;5446;50.826;4.380;2023-07-28T15:50:02;27.10;99.90
10788;DHT22;5446;50.826;4.380;2023-07-28T15:52:30;27.40;99.90
10788;DHT22;5446;50.826;4.380;2023-07-28T15:54:56;27.10;99.90
10788;DHT22;5446;50.826;4.380;2023-07-28T15:57:22;26.90;99.90
10788;DHT22;5446;50.826;4.380;2023-07-28T15:59:48;26.80;99.90
10788;DHT22;5446;50.826;4.380;2023-07-28T16:02:14;27.00;99.90